createdAt,value
2022-09-26T00:01:34.457Z,2.28
2022-09-26T00:04:24.654Z,2.53
2022-09-26T00:06:54.832Z,2.22
2022-09-26T00:09:25.126Z,2.10
2022-09-26T00:11:52.614Z,2.10
2022-09-26T00:14:28.300Z,2.35
2022-09-26T00:16:55.928Z,2.10
2022-09-26T00:19:23.403Z,2.40
2022-09-26T00:21:50.251Z,2.15
2022-09-26T00:24:17.655Z,2.72
2022-09-26T00:26:44.642Z,2.30
2022-09-26T00:29:12.909Z,2.20
2022-09-26T00:31:43.247Z,1.60
2022-09-26T00:34:13.423Z,1.92
2022-09-26T00:36:40.254Z,2.25
2022-09-26T00:39:09.097Z,1.58
2022-09-26T00:41:37.249Z,2.08
2022-09-26T00:44:24.077Z,2.30
2022-09-26T00:46:51.427Z,1.80
2022-09-26T00:49:35.947Z,2.42
2022-09-26T00:52:13.719Z,1.92
2022-09-26T00:54:45.199Z,2.08
2022-09-26T00:57:27.966Z,2.28
2022-09-26T01:00:01.453Z,1.92
2022-09-26T01:02:29.261Z,2.65
2022-09-26T01:04:58.477Z,2.80
2022-09-26T01:07:28.434Z,2.22
2022-09-26T01:09:55.903Z,2.33
2022-09-26T01:12:23.131Z,1.75
2022-09-26T01:14:52.945Z,1.90
2022-09-26T01:17:21.444Z,2.08
2022-09-26T01:20:00.056Z,2.80
2022-09-26T01:22:57.244Z,2.28
2022-09-26T01:25:57.546Z,2.63
2022-09-26T01:28:33.277Z,2.50
2022-09-26T01:31:05.892Z,2.40
2022-09-26T01:33:47.591Z,2.45
2022-09-26T01:36:31.337Z,3.03
2022-09-26T01:39:06.533Z,2.15
2022-09-26T01:42:07.238Z,1.73
2022-09-26T01:45:19.788Z,2.75
2022-09-26T01:47:57.088Z,2.10
2022-09-26T01:50:37.037Z,2.35
2022-09-26T01:53:16.151Z,2.15
2022-09-26T01:55:48.406Z,1.95
2022-09-26T01:58:29.624Z,2.20
2022-09-26T02:00:59.258Z,1.85
2022-09-26T02:03:30.483Z,1.65
2022-09-26T02:06:11.580Z,2.55
2022-09-26T02:08:51.279Z,2.13
2022-09-26T02:11:19.886Z,1.92
2022-09-26T02:14:03.479Z,2.10
2022-09-26T02:16:41.779Z,1.98
2022-09-26T02:19:51.156Z,2.00
2022-09-26T02:22:18.525Z,2.40
2022-09-26T02:24:45.822Z,1.92
2022-09-26T02:27:13.207Z,1.98
2022-09-26T02:29:40.611Z,2.25
2022-09-26T02:32:20.767Z,2.22
2022-09-26T02:34:48.499Z,2.15
2022-09-26T02:37:17.467Z,2.58
2022-09-26T02:39:46.698Z,2.15
2022-09-26T02:42:33.908Z,2.50
2022-09-26T02:45:10.113Z,2.35
2022-09-26T02:47:56.065Z,2.88
2022-09-26T02:50:55.304Z,2.53
2022-09-26T02:53:32.202Z,2.80
2022-09-26T02:56:23.548Z,2.42
2022-09-26T02:59:07.038Z,2.90
2022-09-26T03:02:13.445Z,2.55
2022-09-26T03:05:08.992Z,2.92
2022-09-26T03:07:51.092Z,2.90
2022-09-26T03:10:19.183Z,3.25
2022-09-26T03:12:46.239Z,2.88
2022-09-26T03:15:14.196Z,3.28
2022-09-26T03:17:54.669Z,3.33
2022-09-26T03:20:23.150Z,3.08
2022-09-26T03:22:50.707Z,4.30
2022-09-26T03:25:22.456Z,3.50
2022-09-26T03:27:49.995Z,3.53
2022-09-26T03:30:18.889Z,4.65
2022-09-26T03:32:45.762Z,4.35
2022-09-26T03:35:12.796Z,4.00
2022-09-26T03:37:39.697Z,4.18
2022-09-26T03:40:09.991Z,4.80
2022-09-26T03:42:37.666Z,4.53
2022-09-26T03:45:10.497Z,4.63
2022-09-26T03:47:41.921Z,4.57
2022-09-26T03:50:09.431Z,4.57
2022-09-26T03:52:36.577Z,6.22
2022-09-26T03:55:04.614Z,5.82
2022-09-26T03:57:31.452Z,5.18
2022-09-26T03:59:58.325Z,5.40
2022-09-26T04:02:25.199Z,5.65
2022-09-26T04:04:52.195Z,6.72
2022-09-26T04:07:18.926Z,5.18
2022-09-26T04:09:45.707Z,6.03
2022-09-26T04:12:12.483Z,6.43
2022-09-26T04:14:39.298Z,6.15
2022-09-26T04:17:06.083Z,6.43
2022-09-26T04:19:33.515Z,6.53
2022-09-26T04:22:00.385Z,7.28
2022-09-26T04:24:27.876Z,6.85
2022-09-26T04:26:54.741Z,7.03
2022-09-26T04:29:21.835Z,7.50
2022-09-26T04:31:51.351Z,6.97
2022-09-26T04:34:19.084Z,7.47
2022-09-26T04:36:51.296Z,7.60
2022-09-26T04:39:18.139Z,7.88
2022-09-26T04:41:44.895Z,7.28
2022-09-26T04:44:12.827Z,7.38
2022-09-26T04:46:39.616Z,7.78
2022-09-26T04:49:06.662Z,8.27
2022-09-26T04:51:33.524Z,7.82
2022-09-26T04:54:00.356Z,8.43
2022-09-26T04:56:28.943Z,7.68
2022-09-26T04:58:57.333Z,8.80
2022-09-26T05:01:25.061Z,7.65
2022-09-26T05:03:52.079Z,8.85
2022-09-26T05:06:18.968Z,7.22
2022-09-26T05:08:46.859Z,7.97
2022-09-26T05:11:15.114Z,8.38
2022-09-26T05:13:42.257Z,8.60
2022-09-26T05:16:10.115Z,8.43
2022-09-26T05:18:39.237Z,7.93
2022-09-26T05:21:07.483Z,8.40
2022-09-26T05:23:56.034Z,7.07
2022-09-26T05:26:23.406Z,7.75
2022-09-26T05:28:54.784Z,8.25
2022-09-26T05:31:28.898Z,7.80
2022-09-26T05:33:58.934Z,7.80
2022-09-26T05:36:27.013Z,7.18
2022-09-26T05:38:54.340Z,7.00
2022-09-26T05:41:21.563Z,7.03
2022-09-26T05:43:48.416Z,7.07
2022-09-26T05:46:16.007Z,7.22
2022-09-26T05:48:42.942Z,7.30
2022-09-26T05:51:15.313Z,5.88
2022-09-26T05:53:46.249Z,5.80
2022-09-26T05:56:18.462Z,5.68
2022-09-26T05:58:46.620Z,6.28
2022-09-26T06:01:15.844Z,6.75
2022-09-26T06:03:44.946Z,6.28
2022-09-26T06:06:16.855Z,6.47
2022-09-26T06:08:44.725Z,5.78
2022-09-26T06:11:14.357Z,6.18
2022-09-26T06:13:45.987Z,6.18
2022-09-26T06:16:19.093Z,5.95
2022-09-26T06:18:47.412Z,5.25
2022-09-26T06:21:17.084Z,5.85
2022-09-26T06:23:44.279Z,5.60
2022-09-26T06:26:21.393Z,5.75
2022-09-26T06:28:50.314Z,5.25
2022-09-26T06:31:18.642Z,5.20
2022-09-26T06:33:50.166Z,5.43
2022-09-26T06:36:17.093Z,4.40
2022-09-26T06:38:43.896Z,5.70
2022-09-26T06:41:10.714Z,6.10
2022-09-26T06:43:37.517Z,4.55
2022-09-26T06:46:09.560Z,4.45
2022-09-26T06:48:36.435Z,4.57
2022-09-26T06:51:03.475Z,4.80
2022-09-26T06:53:31.452Z,4.35
2022-09-26T06:56:02.253Z,4.65
2022-09-26T06:58:29.584Z,4.53
2022-09-26T07:00:59.098Z,3.40
2022-09-26T07:03:26.640Z,3.20
2022-09-26T07:05:57.801Z,4.28
2022-09-26T07:08:49.975Z,3.72
2022-09-26T07:11:35.237Z,3.20
2022-09-26T07:14:02.142Z,3.10
2022-09-26T07:16:36.595Z,2.53
2022-09-26T07:19:03.577Z,3.03
2022-09-26T07:21:30.361Z,3.08
2022-09-26T07:23:58.559Z,3.00
2022-09-26T07:26:25.470Z,2.78
2022-09-26T07:28:54.954Z,3.03
2022-09-26T07:31:26.283Z,2.72
2022-09-26T07:33:53.560Z,2.78
2022-09-26T07:36:20.987Z,2.58
2022-09-26T07:38:48.696Z,3.13
2022-09-26T07:41:16.236Z,2.53
2022-09-26T07:44:34.570Z,3.40
2022-09-26T07:46:48.789Z,2.67
2022-09-26T07:49:34.116Z,2.67
2022-09-26T07:52:01.051Z,3.47
2022-09-26T07:54:27.842Z,2.75
2022-09-26T07:56:55.301Z,3.22
2022-09-26T07:59:22.990Z,2.40
2022-09-26T08:01:52.305Z,3.10
2022-09-26T08:04:19.115Z,2.78
2022-09-26T08:06:46.064Z,3.58
2022-09-26T08:09:13.285Z,3.00
2022-09-26T08:11:41.958Z,3.63
2022-09-26T08:14:08.865Z,3.30
2022-09-26T08:16:39.543Z,3.17
2022-09-26T08:19:07.947Z,3.70
2022-09-26T08:21:35.405Z,3.10
2022-09-26T08:24:02.701Z,3.50
2022-09-26T08:26:29.530Z,2.90
2022-09-26T08:28:56.281Z,4.10
2022-09-26T08:31:23.392Z,3.83
2022-09-26T08:33:50.281Z,3.35
2022-09-26T08:36:17.485Z,2.67
2022-09-26T08:38:45.153Z,4.00
2022-09-26T08:41:17.711Z,3.47
2022-09-26T08:44:24.147Z,3.58
2022-09-26T08:46:58.435Z,3.35
2022-09-26T08:49:42.462Z,3.67
2022-09-26T08:52:30.145Z,3.83
2022-09-26T08:55:01.287Z,3.50
2022-09-26T08:57:34.295Z,3.15
2022-09-26T09:00:15.419Z,4.10
2022-09-26T09:02:50.216Z,2.60
2022-09-26T09:05:27.513Z,2.90
2022-09-26T09:07:57.485Z,3.35
2022-09-26T09:10:46.601Z,3.67
2022-09-26T09:13:37.514Z,3.42
2022-09-26T09:16:28.538Z,4.07
2022-09-26T09:18:55.380Z,3.05
2022-09-26T09:21:31.150Z,3.45
2022-09-26T09:24:16.869Z,3.55
2022-09-26T09:30:16.584Z,3.15
2022-09-26T09:33:00.356Z,2.88
2022-09-26T09:35:49.458Z,2.92
2022-09-26T09:38:20.688Z,3.67
2022-09-26T09:41:12.286Z,3.70
2022-09-26T09:43:59.097Z,3.63
2022-09-26T09:46:39.628Z,2.78
2022-09-26T09:49:09.604Z,2.85
2022-09-26T09:52:11.693Z,3.33
2022-09-26T09:54:49.225Z,2.92
2022-09-26T09:57:55.872Z,3.33
2022-09-26T10:00:27.677Z,3.03
2022-09-26T10:03:13.125Z,4.10
2022-09-26T10:05:50.066Z,3.92
2022-09-26T10:08:27.472Z,3.38
2022-09-26T10:11:26.058Z,3.90
2022-09-26T10:13:55.290Z,4.03
2022-09-26T10:16:22.623Z,4.38
2022-09-26T10:19:06.103Z,3.40
2022-09-26T10:21:39.437Z,3.60
2022-09-26T10:24:08.473Z,3.85
2022-09-26T10:26:37.178Z,3.35
2022-09-26T10:29:38.367Z,4.00
2022-09-26T10:32:05.605Z,4.05
2022-09-26T10:34:35.274Z,3.38
2022-09-26T10:37:23.872Z,3.85
2022-09-26T10:40:14.374Z,3.17
2022-09-26T10:42:41.464Z,4.07
2022-09-26T10:45:17.460Z,3.90
2022-09-26T10:47:47.348Z,4.45
2022-09-26T10:50:25.583Z,4.22
2022-09-26T10:53:02.570Z,4.40
2022-09-26T10:55:39.530Z,4.75
2022-09-26T10:58:14.196Z,4.93
2022-09-26T11:00:44.552Z,5.70
2022-09-26T11:03:35.263Z,6.53
2022-09-26T11:06:02.168Z,5.75
2022-09-26T11:08:34.403Z,5.70
2022-09-26T11:11:04.202Z,4.60
2022-09-26T11:14:03.492Z,5.45
2022-09-26T11:16:38.374Z,4.55
2022-09-26T11:19:32.677Z,4.78
2022-09-26T11:22:19.341Z,3.97
2022-09-26T11:25:07.193Z,4.63
2022-09-26T11:27:47.518Z,5.38
2022-09-26T11:30:22.549Z,5.82
2022-09-26T11:32:56.361Z,5.15
2022-09-26T11:35:29.722Z,3.85
2022-09-26T11:38:21.899Z,5.43
2022-09-26T11:41:03.460Z,5.22
2022-09-26T11:44:13.552Z,5.43
2022-09-26T11:47:06.721Z,5.07
2022-09-26T11:49:53.692Z,5.85
2022-09-26T11:52:26.201Z,5.13
2022-09-26T11:55:20.316Z,4.78
2022-09-26T11:58:03.215Z,5.60
2022-09-26T12:03:38.110Z,4.40
2022-09-26T12:06:22.569Z,5.35
2022-09-26T12:09:00.390Z,4.90
2022-09-26T12:11:45.485Z,5.13
2022-09-26T12:14:36.904Z,4.57
2022-09-26T12:17:12.534Z,4.90
2022-09-26T12:20:05.130Z,5.30
2022-09-26T12:22:42.550Z,3.35
2022-09-26T12:26:01.641Z,5.32
2022-09-26T12:29:12.523Z,3.58
2022-09-26T12:32:16.353Z,3.50
2022-09-26T12:35:01.334Z,3.45
2022-09-26T12:37:57.345Z,3.40
2022-09-26T12:40:39.222Z,2.80
2022-09-26T12:43:29.395Z,3.15
2022-09-26T12:46:02.675Z,2.72
2022-09-26T12:48:34.396Z,3.08
2022-09-26T12:51:16.271Z,2.95
2022-09-26T12:54:06.303Z,3.45
2022-09-26T12:56:44.925Z,3.20
2022-09-26T12:59:45.763Z,2.17
2022-09-26T13:02:47.003Z,2.78
2022-09-26T13:05:31.597Z,2.15
2022-09-26T13:08:53.301Z,2.58
2022-09-26T13:11:43.281Z,2.53
2022-09-26T13:14:47.157Z,2.15
2022-09-26T13:19:59.063Z,2.60
2022-09-26T13:22:32.856Z,2.03
2022-09-26T13:25:14.932Z,2.47
2022-09-26T13:28:05.314Z,2.10
2022-09-26T13:30:41.906Z,2.35
2022-09-26T13:33:31.869Z,2.50
2022-09-26T13:36:01.388Z,3.00
2022-09-26T13:38:46.511Z,2.50
2022-09-26T13:41:16.001Z,1.70
2022-09-26T13:43:50.466Z,1.67
2022-09-26T13:46:51.070Z,1.80
2022-09-26T13:49:51.125Z,2.10
2022-09-26T13:52:48.121Z,1.85
2022-09-26T13:55:20.260Z,1.80
2022-09-26T13:58:09.267Z,1.73
2022-09-26T14:00:40.590Z,1.80
2022-09-26T14:03:10.148Z,2.40
2022-09-26T14:05:43.627Z,1.92
2022-09-26T14:08:44.638Z,2.10
2022-09-26T14:11:34.410Z,1.90
2022-09-26T14:14:16.774Z,2.17
2022-09-26T14:17:01.578Z,2.17
2022-09-26T14:19:49.734Z,1.80
2022-09-26T14:22:20.731Z,1.98
2022-09-26T14:24:57.011Z,1.75
2022-09-26T14:27:42.268Z,1.75
2022-09-26T14:30:24.704Z,1.40
2022-09-26T14:32:59.034Z,1.52
2022-09-26T14:35:35.155Z,1.48
2022-09-26T14:38:14.374Z,1.80
2022-09-26T14:40:56.689Z,1.70
2022-09-26T14:43:28.049Z,1.77
2022-09-26T14:46:04.505Z,1.55
2022-09-26T14:48:36.087Z,1.70
2022-09-26T14:51:15.811Z,1.70
2022-09-26T14:53:48.784Z,1.52
2022-09-26T14:56:29.384Z,1.55
2022-09-26T14:59:24.272Z,1.50
2022-09-26T15:02:17.957Z,1.45
2022-09-26T15:04:58.509Z,1.25
2022-09-26T15:07:27.205Z,1.38
2022-09-26T15:10:24.208Z,1.20
2022-09-26T15:13:08.644Z,1.90
2022-09-26T15:15:45.589Z,1.30
2022-09-26T15:18:26.283Z,1.77
2022-09-26T15:21:23.177Z,1.50
2022-09-26T15:23:53.088Z,1.83
2022-09-26T15:26:24.479Z,1.60
2022-09-26T15:28:53.111Z,1.25
2022-09-26T15:31:35.130Z,1.55
2022-09-26T15:34:16.405Z,1.50
2022-09-26T15:36:45.677Z,1.50
2022-09-26T15:39:30.992Z,1.60
2022-09-26T15:42:25.129Z,2.47
2022-09-26T15:45:00.727Z,1.50
2022-09-26T15:47:31.423Z,1.40
2022-09-26T15:50:23.417Z,1.75
2022-09-26T15:52:57.545Z,1.30
2022-09-26T15:56:02.718Z,1.58
2022-09-26T15:58:44.433Z,1.67
2022-09-26T16:01:16.998Z,1.70
2022-09-26T16:04:15.721Z,1.40
2022-09-26T16:06:52.918Z,1.63
2022-09-26T16:09:33.419Z,1.20
2022-09-26T16:12:05.048Z,1.10
2022-09-26T16:14:46.534Z,1.65
2022-09-26T16:17:26.411Z,1.40
2022-09-26T16:19:56.538Z,1.20
2022-09-26T16:25:23.363Z,0.93
2022-09-26T16:27:59.436Z,1.10
2022-09-26T16:30:29.996Z,1.10
2022-09-26T16:33:02.897Z,1.50
2022-09-26T16:35:33.613Z,2.75
2022-09-26T16:38:05.417Z,2.22
2022-09-26T16:40:34.706Z,1.95
2022-09-26T16:43:12.726Z,2.03
2022-09-26T16:45:51.488Z,2.58
2022-09-26T16:48:41.066Z,1.80
2022-09-26T16:51:20.784Z,1.92
2022-09-26T16:53:54.146Z,1.92
2022-09-26T16:56:23.439Z,1.75
2022-09-26T16:58:51.675Z,1.80
2022-09-26T17:01:37.850Z,1.80
2022-09-26T17:04:10.297Z,2.30
2022-09-26T17:06:37.304Z,3.03
2022-09-26T17:09:16.881Z,4.00
2022-09-26T17:11:50.677Z,3.17
2022-09-26T17:14:22.112Z,2.72
2022-09-26T17:16:55.079Z,2.50
2022-09-26T17:19:23.362Z,2.90
2022-09-26T17:21:51.340Z,2.80
2022-09-26T17:24:30.164Z,3.17
2022-09-26T17:27:05.671Z,2.70
2022-09-26T17:29:40.400Z,3.33
2022-09-26T17:32:14.408Z,3.28
2022-09-26T17:34:41.621Z,3.60
2022-09-26T17:37:12.848Z,3.15
2022-09-26T17:39:39.741Z,3.70
2022-09-26T17:42:10.763Z,3.83
2022-09-26T17:44:37.879Z,4.38
2022-09-26T17:47:08.533Z,4.20
2022-09-26T17:49:38.521Z,4.00
2022-09-26T17:52:24.629Z,4.57
2022-09-26T17:54:53.853Z,4.60
2022-09-26T17:57:24.545Z,4.97
2022-09-26T17:59:54.780Z,5.32
2022-09-26T18:02:31.424Z,5.22
2022-09-26T18:05:06.178Z,5.30
2022-09-26T18:07:40.180Z,5.47
2022-09-26T18:10:15.504Z,5.50
2022-09-26T18:12:42.797Z,4.82
2022-09-26T18:15:15.478Z,4.82
2022-09-26T18:17:44.967Z,4.80
2022-09-26T18:20:11.947Z,4.55
2022-09-26T18:22:38.801Z,4.88
2022-09-26T18:25:08.377Z,4.28
2022-09-26T18:27:39.624Z,3.80
2022-09-26T18:30:07.743Z,3.78
2022-09-26T18:32:39.043Z,4.28
2022-09-26T18:35:17.629Z,4.00
2022-09-26T18:37:44.664Z,4.13
2022-09-26T18:40:16.830Z,3.70
2022-09-26T18:42:47.313Z,4.00
2022-09-26T18:45:36.553Z,4.57
2022-09-26T18:48:11.572Z,4.60
2022-09-26T18:50:45.698Z,5.25
2022-09-26T18:53:19.167Z,5.10
2022-09-26T18:56:04.881Z,5.88
2022-09-26T18:58:32.930Z,5.05
2022-09-26T19:01:08.723Z,5.40
2022-09-26T19:03:41.939Z,5.68
2022-09-26T19:08:43.649Z,6.30
2022-09-26T19:11:16.800Z,5.75
2022-09-26T19:13:53.135Z,5.35
2022-09-26T19:16:24.961Z,7.22
2022-09-26T19:18:52.696Z,6.45
2022-09-26T19:21:29.150Z,6.68
2022-09-26T19:23:58.661Z,6.88
2022-09-26T19:26:33.260Z,6.97
2022-09-26T19:29:11.316Z,7.43
2022-09-26T19:31:39.958Z,6.28
2022-09-26T19:34:07.324Z,6.82
2022-09-26T19:36:34.247Z,6.43
2022-09-26T19:39:01.134Z,7.50
2022-09-26T19:41:28.096Z,6.22
2022-09-26T19:43:54.938Z,6.65
2022-09-26T19:46:27.259Z,7.07
2022-09-26T19:48:54.363Z,6.95
2022-09-26T19:51:24.822Z,6.90
2022-09-26T19:53:51.928Z,7.40
2022-09-26T19:56:18.798Z,8.10
2022-09-26T19:58:46.461Z,7.80
2022-09-26T20:01:20.544Z,8.07
2022-09-26T20:03:47.693Z,7.57
2022-09-26T20:06:24.302Z,7.75
2022-09-26T20:08:56.391Z,7.47
2022-09-26T20:11:27.331Z,7.68
2022-09-26T20:14:12.769Z,8.07
2022-09-26T20:16:42.638Z,7.88
2022-09-26T20:19:16.966Z,8.00
2022-09-26T20:21:44.888Z,7.88
2022-09-26T20:24:16.844Z,7.32
2022-09-26T20:26:43.881Z,7.05
2022-09-26T20:29:14.737Z,7.78
2022-09-26T20:31:47.321Z,7.65
2022-09-26T20:34:17.080Z,8.05
2022-09-26T20:36:48.516Z,7.45
2022-09-26T20:39:24.811Z,6.25
2022-09-26T20:41:52.690Z,7.13
2022-09-26T20:44:30.043Z,7.20
2022-09-26T20:46:59.418Z,6.68
2022-09-26T20:49:35.619Z,6.40
2022-09-26T20:52:03.550Z,6.38
2022-09-26T20:54:32.522Z,6.32
2022-09-26T20:57:02.700Z,5.72
2022-09-26T20:59:29.754Z,5.50
2022-09-26T21:01:58.096Z,5.78
2022-09-26T21:04:31.793Z,5.68
2022-09-26T21:06:59.948Z,5.00
2022-09-26T21:09:26.730Z,5.28
2022-09-26T21:11:53.588Z,5.00
2022-09-26T21:14:20.409Z,4.70
2022-09-26T21:16:54.264Z,5.40
2022-09-26T21:19:25.181Z,4.93
2022-09-26T21:21:52.267Z,4.68
2022-09-26T21:24:25.199Z,4.50
2022-09-26T21:29:19.094Z,3.75
2022-09-26T21:31:49.495Z,4.90
2022-09-26T21:34:23.093Z,4.00
2022-09-26T21:36:51.737Z,3.72
2022-09-26T21:39:19.915Z,4.10
2022-09-26T21:41:49.120Z,4.75
2022-09-26T21:44:38.055Z,4.40
2022-09-26T21:47:04.923Z,3.90
2022-09-26T21:49:31.718Z,4.13
2022-09-26T21:52:10.506Z,3.00
2022-09-26T21:54:44.033Z,3.80
2022-09-26T21:57:23.216Z,3.55
2022-09-26T21:59:51.911Z,4.20
2022-09-26T22:02:18.780Z,4.68
2022-09-26T22:04:45.608Z,3.33
2022-09-26T22:07:12.419Z,3.45
2022-09-26T22:09:39.360Z,3.13
2022-09-26T22:12:06.207Z,3.30
2022-09-26T22:14:33.184Z,4.38
2022-09-26T22:16:59.991Z,4.55
2022-09-26T22:19:27.473Z,2.97
2022-09-26T22:21:54.646Z,4.18
2022-09-26T22:24:21.510Z,3.42
2022-09-26T22:26:48.328Z,2.97
2022-09-26T22:29:15.318Z,3.13
2022-09-26T22:31:42.638Z,3.35
2022-09-26T22:34:09.503Z,2.83
2022-09-26T22:36:36.593Z,4.22
2022-09-26T22:39:03.933Z,3.13
2022-09-26T22:41:30.685Z,3.20
2022-09-26T22:43:57.595Z,3.60
2022-09-26T22:46:24.525Z,3.22
2022-09-26T22:48:51.323Z,2.47
2022-09-26T22:51:18.488Z,2.70
2022-09-26T22:53:45.661Z,2.80
2022-09-26T22:56:14.964Z,2.47
2022-09-26T22:58:43.980Z,3.28
2022-09-26T23:01:13.709Z,2.63
2022-09-26T23:03:40.926Z,2.03
2022-09-26T23:06:08.846Z,2.80
2022-09-26T23:08:36.576Z,2.20
2022-09-26T23:11:04.661Z,2.55
2022-09-26T23:13:32.659Z,2.85
2022-09-26T23:16:07.677Z,2.45
2022-09-26T23:18:35.562Z,2.33
2022-09-26T23:21:10.652Z,2.38
2022-09-26T23:23:38.056Z,2.08
2022-09-26T23:26:06.741Z,1.88
2022-09-26T23:28:34.134Z,2.60
2022-09-26T23:31:09.486Z,3.47
2022-09-26T23:33:37.328Z,2.03
2022-09-26T23:36:05.157Z,2.40
2022-09-26T23:38:32.668Z,2.28
2022-09-26T23:40:59.907Z,2.55
2022-09-26T23:43:26.740Z,2.28
2022-09-26T23:45:54.003Z,1.95
2022-09-26T23:48:20.886Z,2.50
2022-09-26T23:50:47.701Z,2.70
2022-09-26T23:53:15.345Z,2.47
2022-09-26T23:55:42.461Z,2.67
2022-09-26T23:58:09.951Z,1.95
